Terminal Aerodrome Forecast
Issued by NWS

Home | Current Version | Previous Version | Text Only | Print | Product List | Glossary On
Versions: 1 2 3 4 5 6 7 8 9 10 11 12 13 14 15 16 17 18
000
FTUS43 KLSX 261100
TAFUIN
TAF
KUIN 261138Z 2612/2712 14008KT P6SM OVC120
     FM261600 15010KT 3SM -SN BR SCT015 OVC025
      TEMPO 2617/2621 1SM -SN BR BKN005 OVC012
     FM262200 02005KT 5SM -SN BR OVC015
     FM270600 33010KT P6SM -SHSN BKN025 OVC040=

USA.gov is the U.S. government's official web portal to all federal, state and local government web resources and services.